Marion, IN

3:18 PM EST on December 08, 2016 (GMT -0500)
Shady Hills Estates | | Change Station

Elev 853 ft 40.58 °N, 85.67 °W | Updated 4 seconds ago

Overcast
Overcast
22.1 °F
Feels Like 12 °F
N
9.2
Wind Variable Wind from SSW
Gusts 12.3 mph

Today
High -- | Low -- °F
--% Chance of Precip.
Yesterday
High -- | Low -- °F
Precip. -- in
Pressure 30.30 in
Visibility 10.0 miles
Clouds Overcast 2100 ft
Windchill 12 °F
Dew Point -9 °F
Humidity 24%
Rainfall 0.00 in
Snow Depth Not available.
7:54 AM 5:15 PM
Waxing Gibbous, 66% visible
METAR KMZZ 081955Z AUTO 29020G28KT 10SM OVC021 M06/M10 A3030 RMK AO2 T10581098
Pressure 30.30 in
Visibility 10.0 miles
Clouds Overcast 2100 ft
Windchill 12 °F
Dew Point -9 °F
Humidity 24%
Rainfall 0.00 in
Snow Depth Not available.
7:54 AM 5:15 PM
Waxing Gibbous, 66% visible
METAR KMZZ 081955Z AUTO 29020G28KT 10SM OVC021 M06/M10 A3030 RMK AO2 T10581098

10-Day Weather Forecast

Almanac

Astronomy

Dec. 08, 2016 Rise Set
Actual Time
Civil Twilight
Nautical Twilight
Astronomical Twilight
Moon
Length of Visible Light
Length of Day
Tomorrow will be .
, % of the Moon is Illuminated

Today's Extremes

State Highs State Lows

Community

WunderPhotos

Upload Photos

1,956,277 photos uploaded!

WunderBlog® & News

Nearby

Air Quality

  Air Quality AQ Index Pollutant
Not available.

Snow Depth

Station Depth Elevation

Earthquake Activity

City Distance Mag. Time & Date
Minimum magnitude displayed is 2.5.

Coastal Water Temperatures

Place Temperature

Stations

Nearby Weather Stations

Station Location Temp. Windchill Dew Point Humidity Wind Precip. Elev Updated Type
                   

Watches & Warnings

There are currently no watches in effect.